createdAt,value
2017-12-03T00:00:13.792Z,964.17
2017-12-03T00:01:13.727Z,964.16
2017-12-03T00:02:13.640Z,964.16
2017-12-03T00:03:13.572Z,964.16
2017-12-03T00:04:13.509Z,964.14
2017-12-03T00:05:13.477Z,964.18
2017-12-03T00:06:13.406Z,964.17
2017-12-03T00:07:13.333Z,964.13
2017-12-03T00:08:13.260Z,964.14
2017-12-03T00:09:13.209Z,964.16
2017-12-03T00:10:13.138Z,964.13
2017-12-03T00:11:13.069Z,964.13
2017-12-03T00:12:13.009Z,964.15
2017-12-03T00:13:12.942Z,964.13
2017-12-03T00:14:12.876Z,964.15
2017-12-03T00:15:12.808Z,964.15
2017-12-03T00:16:12.759Z,964.13
2017-12-03T00:17:12.706Z,964.16
2017-12-03T00:18:12.648Z,964.19
2017-12-03T00:19:12.572Z,964.21
2017-12-03T00:20:12.493Z,964.22
2017-12-03T00:21:12.464Z,964.21
2017-12-03T00:22:12.371Z,964.19
2017-12-03T00:23:12.324Z,964.16
2017-12-03T00:24:12.230Z,964.18
2017-12-03T00:25:12.195Z,964.22
2017-12-03T00:26:12.108Z,964.17
2017-12-03T00:27:12.039Z,964.19
2017-12-03T00:28:12.013Z,964.17
2017-12-03T00:29:11.914Z,964.19
2017-12-03T00:30:11.874Z,964.15
2017-12-03T00:31:11.780Z,964.16
2017-12-03T00:32:11.719Z,964.20
2017-12-03T00:33:11.658Z,964.15
2017-12-03T00:34:11.602Z,964.18
2017-12-03T00:35:11.533Z,964.13
2017-12-03T00:36:11.473Z,964.20
2017-12-03T00:37:11.404Z,964.16
2017-12-03T00:38:11.340Z,964.12
2017-12-03T00:39:11.312Z,964.12
2017-12-03T00:40:11.211Z,964.15
2017-12-03T00:41:11.143Z,964.15
2017-12-03T00:42:11.101Z,964.11
2017-12-03T00:43:11.011Z,964.17
2017-12-03T00:44:10.956Z,964.13
2017-12-03T00:45:10.889Z,964.12
2017-12-03T00:46:10.826Z,964.13
2017-12-03T00:47:10.767Z,964.12
2017-12-03T00:48:10.696Z,964.09
2017-12-03T00:49:10.657Z,964.12
2017-12-03T00:50:10.576Z,964.07
2017-12-03T00:51:10.500Z,964.14
2017-12-03T00:52:10.433Z,964.14
2017-12-03T00:53:10.396Z,964.15
2017-12-03T00:54:10.320Z,964.18
2017-12-03T00:55:10.249Z,964.10
2017-12-03T00:56:10.180Z,964.16
2017-12-03T00:57:10.120Z,964.17
2017-12-03T00:58:10.048Z,964.15
2017-12-03T00:59:09.986Z,964.19
2017-12-03T01:00:09.920Z,964.20
2017-12-03T01:01:09.860Z,964.19
2017-12-03T01:02:09.801Z,964.18
2017-12-03T01:03:09.730Z,964.16
2017-12-03T01:04:09.675Z,964.15
2017-12-03T01:05:09.600Z,964.16
2017-12-03T01:06:09.540Z,964.12
2017-12-03T01:07:09.501Z,964.11
2017-12-03T01:08:09.410Z,964.16
2017-12-03T01:09:09.342Z,964.11
2017-12-03T01:10:09.288Z,964.10
2017-12-03T01:11:09.218Z,964.18
2017-12-03T01:12:09.159Z,964.20
2017-12-03T01:13:09.127Z,964.16
2017-12-03T01:14:09.020Z,964.15
2017-12-03T01:15:09.011Z,964.14
2017-12-03T01:16:08.894Z,964.16
2017-12-03T01:17:08.827Z,964.16
2017-12-03T01:18:08.768Z,964.17
2017-12-03T01:19:08.692Z,964.18
2017-12-03T01:20:08.647Z,964.15
2017-12-03T01:21:08.581Z,964.21
2017-12-03T01:22:08.509Z,964.22
2017-12-03T01:23:08.448Z,964.20
2017-12-03T01:24:08.378Z,964.26
2017-12-03T01:25:08.320Z,964.33
2017-12-03T01:26:08.255Z,964.33
2017-12-03T01:27:08.184Z,964.29
2017-12-03T01:28:08.120Z,964.28
2017-12-03T01:29:08.063Z,964.29
2017-12-03T01:30:07.989Z,964.21
2017-12-03T01:31:07.927Z,964.22
2017-12-03T01:32:07.863Z,964.24
2017-12-03T01:33:07.798Z,964.23
2017-12-03T01:34:07.734Z,964.21
2017-12-03T01:35:07.675Z,964.26
2017-12-03T01:36:07.611Z,964.22
2017-12-03T01:37:07.546Z,964.25
2017-12-03T01:38:07.478Z,964.24
2017-12-03T01:39:07.411Z,964.28
2017-12-03T01:40:07.352Z,964.32
2017-12-03T01:41:07.283Z,964.31
2017-12-03T01:42:07.217Z,964.35
2017-12-03T01:43:07.157Z,964.34
2017-12-03T01:44:07.095Z,964.36
2017-12-03T01:45:07.031Z,964.34
2017-12-03T01:46:06.961Z,964.36
2017-12-03T01:47:06.895Z,964.36
2017-12-03T01:48:06.837Z,964.33
2017-12-03T01:49:06.770Z,964.29
2017-12-03T01:50:06.709Z,964.30
2017-12-03T01:51:06.642Z,964.28
2017-12-03T01:52:06.571Z,964.30
2017-12-03T01:53:06.504Z,964.32
2017-12-03T01:54:06.450Z,964.32
2017-12-03T01:55:06.377Z,964.32
2017-12-03T01:56:06.312Z,964.34
2017-12-03T01:57:06.250Z,964.37
2017-12-03T01:58:06.184Z,964.32
2017-12-03T01:59:06.120Z,964.35
2017-12-03T02:00:06.062Z,964.39
2017-12-03T02:01:05.990Z,964.36
2017-12-03T02:02:05.925Z,964.37
2017-12-03T02:03:05.861Z,964.39
2017-12-03T02:04:05.794Z,964.41
2017-12-03T02:05:05.736Z,964.43
2017-12-03T02:06:05.674Z,964.41
2017-12-03T02:07:05.601Z,964.39
2017-12-03T02:08:05.536Z,964.42
2017-12-03T02:09:05.473Z,964.45
2017-12-03T02:10:05.408Z,964.45
2017-12-03T02:11:05.344Z,964.41
2017-12-03T02:12:05.282Z,964.39
2017-12-03T02:13:05.212Z,964.40
2017-12-03T02:14:05.149Z,964.39
2017-12-03T02:15:05.083Z,964.39
2017-12-03T02:16:05.020Z,964.43
2017-12-03T02:17:04.960Z,964.40
2017-12-03T02:18:04.895Z,964.38
2017-12-03T02:19:04.826Z,964.40
2017-12-03T02:20:04.758Z,964.43
2017-12-03T02:21:04.702Z,964.40
2017-12-03T02:22:04.637Z,964.43
2017-12-03T02:23:04.564Z,964.41
2017-12-03T02:24:04.507Z,964.37
2017-12-03T02:25:04.441Z,964.37
2017-12-03T02:26:04.378Z,964.33
2017-12-03T02:27:04.311Z,964.35
2017-12-03T02:28:04.247Z,964.35
2017-12-03T02:29:04.177Z,964.35
2017-12-03T02:30:04.111Z,964.43
2017-12-03T02:31:04.050Z,964.36
2017-12-03T02:32:03.987Z,964.39
2017-12-03T02:33:03.923Z,964.38
2017-12-03T02:34:03.851Z,964.38
2017-12-03T02:35:03.794Z,964.39
2017-12-03T02:36:03.722Z,964.42
2017-12-03T02:37:03.663Z,964.41
2017-12-03T02:38:03.592Z,964.46
2017-12-03T02:39:03.528Z,964.43
2017-12-03T02:40:03.474Z,964.43
2017-12-03T02:41:03.405Z,964.45
2017-12-03T02:42:03.333Z,964.51
2017-12-03T02:43:03.270Z,964.49
2017-12-03T02:44:03.208Z,964.48
2017-12-03T02:45:03.150Z,964.50
2017-12-03T02:46:03.073Z,964.54
2017-12-03T02:47:03.011Z,964.56
2017-12-03T02:48:02.948Z,964.54
2017-12-03T02:49:02.885Z,964.55
2017-12-03T02:50:02.814Z,964.55
2017-12-03T02:51:02.750Z,964.56
2017-12-03T02:52:02.690Z,964.54
2017-12-03T02:53:02.620Z,964.61
2017-12-03T02:54:02.561Z,964.61
2017-12-03T02:55:02.496Z,964.61
2017-12-03T02:56:02.432Z,964.59
2017-12-03T02:57:02.366Z,964.62
2017-12-03T02:58:02.301Z,964.59
2017-12-03T02:59:02.229Z,964.63
2017-12-03T03:00:02.181Z,964.64
2017-12-03T03:01:02.103Z,964.60
2017-12-03T03:02:02.037Z,964.64
2017-12-03T03:03:01.970Z,964.68
2017-12-03T03:04:01.906Z,964.71
2017-12-03T03:05:01.840Z,964.74
2017-12-03T03:06:01.784Z,964.72
2017-12-03T03:07:01.711Z,964.75
2017-12-03T03:08:01.654Z,964.81
2017-12-03T03:09:01.587Z,964.75
2017-12-03T03:10:01.524Z,964.80
2017-12-03T03:11:01.453Z,964.81
2017-12-03T03:12:01.387Z,964.76
2017-12-03T03:13:01.323Z,964.75
2017-12-03T03:14:01.270Z,964.76
2017-12-03T03:15:01.198Z,964.80
2017-12-03T03:16:01.129Z,964.81
2017-12-03T03:17:01.065Z,964.86
2017-12-03T03:18:01.001Z,964.83
2017-12-03T03:19:00.939Z,964.81
2017-12-03T03:20:00.869Z,964.84
2017-12-03T03:21:00.810Z,964.85
2017-12-03T03:22:00.741Z,964.85
2017-12-03T03:23:00.674Z,964.88
2017-12-03T03:24:00.611Z,964.87
2017-12-03T03:25:00.553Z,964.91
2017-12-03T03:26:00.487Z,964.89
2017-12-03T03:27:00.416Z,964.91
2017-12-03T03:28:00.358Z,964.89
2017-12-03T03:29:00.287Z,964.92
2017-12-03T03:30:00.224Z,964.94
2017-12-03T03:31:00.159Z,964.98
2017-12-03T03:32:00.091Z,964.95
2017-12-03T03:33:00.032Z,964.97
2017-12-03T03:33:59.968Z,964.92
2017-12-03T03:34:59.897Z,964.95
2017-12-03T03:35:59.839Z,964.98
2017-12-03T03:36:59.779Z,965.01
2017-12-03T03:37:59.713Z,965.03
2017-12-03T03:38:59.645Z,964.99
2017-12-03T03:39:59.581Z,965.00
2017-12-03T03:40:59.515Z,965.04
2017-12-03T03:41:59.453Z,965.04
2017-12-03T03:42:59.379Z,965.07
2017-12-03T03:43:59.324Z,965.03
2017-12-03T03:44:59.250Z,965.09
2017-12-03T03:45:59.192Z,965.10
2017-12-03T03:46:59.121Z,965.05
2017-12-03T03:47:59.064Z,965.09
2017-12-03T03:48:58.998Z,965.02
2017-12-03T03:49:58.934Z,965.07
2017-12-03T03:50:58.862Z,965.01
2017-12-03T03:51:58.803Z,965.03
2017-12-03T03:52:58.739Z,965.04
2017-12-03T03:53:58.668Z,965.04
2017-12-03T03:54:58.609Z,965.04
2017-12-03T03:55:58.538Z,965.11
2017-12-03T03:56:58.479Z,965.05
2017-12-03T03:57:58.410Z,965.07
2017-12-03T03:58:58.343Z,965.10
2017-12-03T03:59:58.285Z,965.09
2017-12-03T04:00:58.215Z,965.10
2017-12-03T04:01:58.154Z,965.11
2017-12-03T04:02:58.088Z,965.09
2017-12-03T04:03:58.024Z,965.08
2017-12-03T04:04:57.956Z,965.07
2017-12-03T04:05:57.896Z,965.09
2017-12-03T04:06:57.830Z,965.13
2017-12-03T04:07:57.762Z,965.16
2017-12-03T04:08:57.701Z,965.13
2017-12-03T04:09:57.633Z,965.11
2017-12-03T04:10:57.565Z,965.10
2017-12-03T04:11:57.508Z,965.12
2017-12-03T04:12:57.438Z,965.13
2017-12-03T04:13:57.373Z,965.17
2017-12-03T04:14:57.312Z,965.16
2017-12-03T04:15:57.247Z,965.17
2017-12-03T04:16:57.178Z,965.14
2017-12-03T04:17:57.116Z,965.17
2017-12-03T04:18:57.047Z,965.10
2017-12-03T04:19:56.982Z,965.07
2017-12-03T04:20:56.924Z,965.10
2017-12-03T04:21:56.861Z,965.12
2017-12-03T04:22:56.794Z,965.10
2017-12-03T04:23:56.730Z,965.05
2017-12-03T04:24:56.661Z,965.09
2017-12-03T04:25:56.611Z,965.10
2017-12-03T04:26:56.528Z,965.14
2017-12-03T04:27:56.468Z,965.17
2017-12-03T04:28:56.407Z,965.11
2017-12-03T04:29:56.334Z,965.17
2017-12-03T04:30:56.279Z,965.15
2017-12-03T04:31:56.209Z,965.13
2017-12-03T04:32:56.146Z,965.11
2017-12-03T04:33:56.074Z,965.14
2017-12-03T04:34:56.016Z,965.20
2017-12-03T04:35:55.945Z,965.18
2017-12-03T04:36:55.885Z,965.23
2017-12-03T04:37:55.821Z,965.22
2017-12-03T04:38:55.749Z,965.21
2017-12-03T04:39:55.684Z,965.24
2017-12-03T04:40:55.621Z,965.27
2017-12-03T04:41:55.562Z,965.26
2017-12-03T04:42:55.490Z,965.27
2017-12-03T04:43:55.430Z,965.23
2017-12-03T04:44:55.361Z,965.23
2017-12-03T04:45:55.296Z,965.27
2017-12-03T04:46:55.237Z,965.29
2017-12-03T04:47:55.166Z,965.28
2017-12-03T04:48:55.102Z,965.28
2017-12-03T04:49:55.039Z,965.25
2017-12-03T04:50:54.978Z,965.23
2017-12-03T04:51:54.912Z,965.30
2017-12-03T04:52:54.846Z,965.31
2017-12-03T04:53:54.780Z,965.29
2017-12-03T04:54:54.724Z,965.33
2017-12-03T04:55:54.655Z,965.35
2017-12-03T04:56:54.584Z,965.30
2017-12-03T04:57:54.519Z,965.37
2017-12-03T04:58:54.454Z,965.37
2017-12-03T04:59:54.390Z,965.34
2017-12-03T05:00:54.329Z,965.36
2017-12-03T05:01:54.262Z,965.35
2017-12-03T05:02:54.193Z,965.37
2017-12-03T05:03:54.132Z,965.37
2017-12-03T05:04:54.076Z,965.37
2017-12-03T05:05:54.006Z,965.42
2017-12-03T05:06:53.943Z,965.39
2017-12-03T05:07:53.871Z,965.38
2017-12-03T05:08:53.807Z,965.40
2017-12-03T05:09:53.744Z,965.44
2017-12-03T05:10:53.674Z,965.44
2017-12-03T05:11:53.612Z,965.45
2017-12-03T05:12:53.545Z,965.43
2017-12-03T05:13:53.484Z,965.45
2017-12-03T05:14:53.424Z,965.48
2017-12-03T05:15:53.357Z,965.48
2017-12-03T05:16:53.292Z,965.46
2017-12-03T05:17:53.236Z,965.52
2017-12-03T05:18:53.162Z,965.47
2017-12-03T05:19:53.097Z,965.53
2017-12-03T05:20:53.037Z,965.51
2017-12-03T05:21:52.970Z,965.51
2017-12-03T05:22:52.903Z,965.48
2017-12-03T05:23:52.835Z,965.50
2017-12-03T05:24:52.776Z,965.48
2017-12-03T05:25:52.711Z,965.51
2017-12-03T05:26:52.639Z,965.48
2017-12-03T05:27:52.579Z,965.49
2017-12-03T05:28:52.528Z,965.51
2017-12-03T05:29:52.538Z,965.50
2017-12-03T05:30:52.387Z,965.51
2017-12-03T05:31:52.326Z,965.53
2017-12-03T05:32:52.259Z,965.54
2017-12-03T05:33:52.189Z,965.53
2017-12-03T05:34:52.123Z,965.56
2017-12-03T05:35:52.080Z,965.54
2017-12-03T05:36:51.997Z,965.62
2017-12-03T05:37:51.945Z,965.59
2017-12-03T05:38:51.872Z,965.56
2017-12-03T05:39:51.801Z,965.54
2017-12-03T05:40:51.738Z,965.59
2017-12-03T05:41:51.681Z,965.55
2017-12-03T05:42:51.606Z,965.57
2017-12-03T05:43:51.544Z,965.57
2017-12-03T05:44:51.480Z,965.58
2017-12-03T05:45:51.414Z,965.59
2017-12-03T05:46:51.347Z,965.57
2017-12-03T05:47:51.287Z,965.56
2017-12-03T05:48:51.220Z,965.55
2017-12-03T05:49:51.154Z,965.65
2017-12-03T05:50:51.091Z,965.59
2017-12-03T05:51:51.030Z,965.60
2017-12-03T05:52:50.963Z,965.58
2017-12-03T05:53:50.896Z,965.62
2017-12-03T05:54:50.826Z,965.64
2017-12-03T05:55:50.769Z,965.60
2017-12-03T05:56:50.700Z,965.59
2017-12-03T05:57:50.645Z,965.64
2017-12-03T05:58:50.569Z,965.63
2017-12-03T05:59:50.508Z,965.64
2017-12-03T06:00:50.445Z,965.66
2017-12-03T06:01:50.382Z,965.64
2017-12-03T06:02:50.316Z,965.66
2017-12-03T06:03:50.251Z,965.70
2017-12-03T06:04:50.185Z,965.66
2017-12-03T06:05:50.122Z,965.65
2017-12-03T06:06:50.059Z,965.73
2017-12-03T06:07:49.993Z,965.73
2017-12-03T06:08:49.931Z,965.72
2017-12-03T06:09:49.865Z,965.71
2017-12-03T06:10:49.795Z,965.72
2017-12-03T06:11:49.735Z,965.70
2017-12-03T06:12:49.664Z,965.81
2017-12-03T06:13:49.602Z,965.73
2017-12-03T06:14:49.543Z,965.73
2017-12-03T06:15:49.482Z,965.76
2017-12-03T06:16:49.403Z,965.83
2017-12-03T06:17:49.344Z,965.83
2017-12-03T06:18:49.283Z,965.84
2017-12-03T06:19:49.219Z,965.85
2017-12-03T06:20:49.151Z,965.83
2017-12-03T06:21:49.098Z,965.84
2017-12-03T06:22:49.014Z,965.89
2017-12-03T06:23:48.956Z,965.85
2017-12-03T06:24:48.882Z,965.89
2017-12-03T06:25:48.831Z,965.84
2017-12-03T06:26:48.757Z,965.89
2017-12-03T06:27:48.702Z,965.84
2017-12-03T06:28:48.625Z,965.89
2017-12-03T06:29:48.565Z,965.89
2017-12-03T06:30:48.492Z,965.89
2017-12-03T06:31:48.442Z,965.92
2017-12-03T06:32:48.375Z,965.88
2017-12-03T06:33:48.299Z,965.88
2017-12-03T06:34:48.258Z,965.88
2017-12-03T06:35:48.176Z,965.88
2017-12-03T06:36:48.103Z,965.86
2017-12-03T06:37:48.046Z,965.87
2017-12-03T06:38:47.989Z,965.88
2017-12-03T06:39:47.914Z,965.89
2017-12-03T06:40:47.851Z,965.85
2017-12-03T06:41:47.790Z,965.87
2017-12-03T06:42:47.716Z,965.86
2017-12-03T06:43:47.655Z,965.84
2017-12-03T06:44:47.588Z,965.89
2017-12-03T06:45:47.528Z,965.89
2017-12-03T06:46:47.462Z,965.91
2017-12-03T06:47:47.399Z,965.94
2017-12-03T06:48:47.339Z,965.96
2017-12-03T06:49:47.265Z,965.94
2017-12-03T06:50:47.204Z,965.96
2017-12-03T06:51:47.135Z,965.99
2017-12-03T06:52:47.074Z,965.99
2017-12-03T06:53:47.000Z,965.98
2017-12-03T06:54:46.951Z,965.99
2017-12-03T06:55:46.877Z,966.02
2017-12-03T06:56:46.811Z,966.07
2017-12-03T06:57:46.746Z,966.05
2017-12-03T06:58:46.684Z,966.03
2017-12-03T06:59:46.614Z,966.01
2017-12-03T07:00:46.548Z,966.06
2017-12-03T07:01:46.491Z,966.06
2017-12-03T07:02:46.421Z,966.03
2017-12-03T07:03:46.358Z,966.04
2017-12-03T07:04:46.305Z,966.01
2017-12-03T07:05:46.234Z,966.05
2017-12-03T07:06:46.166Z,966.05
2017-12-03T07:07:46.102Z,966.13
2017-12-03T07:08:46.031Z,966.15
2017-12-03T07:09:45.963Z,966.17
2017-12-03T07:10:45.900Z,966.20
2017-12-03T07:11:45.835Z,966.17
2017-12-03T07:12:45.780Z,966.19
2017-12-03T07:13:45.708Z,966.13
2017-12-03T07:14:45.647Z,966.17
2017-12-03T07:15:45.581Z,966.22
2017-12-03T07:16:45.512Z,966.25
2017-12-03T07:17:45.446Z,966.17
2017-12-03T07:18:45.379Z,966.22
2017-12-03T07:19:45.326Z,966.21
2017-12-03T07:20:45.250Z,966.16
2017-12-03T07:21:45.190Z,966.24
2017-12-03T07:22:45.118Z,966.23
2017-12-03T07:23:45.051Z,966.24
2017-12-03T07:24:44.990Z,966.28
2017-12-03T07:25:44.927Z,966.31
2017-12-03T07:26:44.859Z,966.33
2017-12-03T07:27:44.802Z,966.34
2017-12-03T07:28:44.728Z,966.36
2017-12-03T07:29:44.711Z,966.32
2017-12-03T07:30:44.612Z,966.37
2017-12-03T07:31:44.531Z,966.36
2017-12-03T07:32:44.484Z,966.36
2017-12-03T07:33:44.405Z,966.36
2017-12-03T07:34:44.337Z,966.33
2017-12-03T07:35:44.273Z,966.37
2017-12-03T07:36:44.211Z,966.38
2017-12-03T07:37:44.147Z,966.37
2017-12-03T07:38:44.074Z,966.38
2017-12-03T07:39:44.015Z,966.30
2017-12-03T07:40:43.950Z,966.29
2017-12-03T07:41:43.957Z,966.29
2017-12-03T07:42:43.820Z,966.28
2017-12-03T07:43:43.867Z,966.31
2017-12-03T07:44:43.684Z,966.30
2017-12-03T07:45:43.670Z,966.26
2017-12-03T07:47:43.491Z,966.22
2017-12-03T07:48:43.437Z,966.26
2017-12-03T07:49:43.413Z,966.24
2017-12-03T07:50:43.310Z,966.25
2017-12-03T07:51:43.287Z,966.31
2017-12-03T07:52:43.174Z,966.33
2017-12-03T07:53:43.111Z,966.31
2017-12-03T07:54:43.042Z,966.30
2017-12-03T07:55:42.973Z,966.32
2017-12-03T07:56:42.916Z,966.32
2017-12-03T07:57:42.846Z,966.32
2017-12-03T07:58:42.786Z,966.32
2017-12-03T07:59:42.717Z,966.30
2017-12-03T08:00:42.646Z,966.30
2017-12-03T08:01:42.591Z,966.27
2017-12-03T08:02:42.523Z,966.28
2017-12-03T08:03:42.461Z,966.26
2017-12-03T08:04:42.402Z,966.31
2017-12-03T08:05:42.345Z,966.29
2017-12-03T08:06:42.262Z,966.30
2017-12-03T08:07:42.216Z,966.33
2017-12-03T08:08:42.133Z,966.39
2017-12-03T08:09:42.079Z,966.39
2017-12-03T08:10:42.006Z,966.38
2017-12-03T08:11:41.941Z,966.36
2017-12-03T08:12:41.876Z,966.35
2017-12-03T08:13:41.816Z,966.33
2017-12-03T08:14:41.783Z,966.31
2017-12-03T08:15:41.691Z,966.34
2017-12-03T08:16:41.619Z,966.32
2017-12-03T08:17:41.558Z,966.32
2017-12-03T08:18:41.498Z,966.33
2017-12-03T08:19:41.429Z,966.33
2017-12-03T08:20:41.417Z,966.34
2017-12-03T08:21:41.319Z,966.31
2017-12-03T08:22:41.239Z,966.31
2017-12-03T08:23:41.169Z,966.31
2017-12-03T08:24:41.170Z,966.37
2017-12-03T08:25:41.038Z,966.33
2017-12-03T08:26:40.971Z,966.38
2017-12-03T08:27:40.931Z,966.35
2017-12-03T08:28:40.873Z,966.41
2017-12-03T08:29:40.782Z,966.39
2017-12-03T08:30:40.730Z,966.39
2017-12-03T08:31:40.659Z,966.42
2017-12-03T08:32:40.592Z,966.38
2017-12-03T08:33:40.530Z,966.43
2017-12-03T08:34:40.471Z,966.47
2017-12-03T08:35:40.397Z,966.44
2017-12-03T08:36:40.340Z,966.45
2017-12-03T08:37:40.281Z,966.48
2017-12-03T08:38:40.206Z,966.49
2017-12-03T08:39:40.159Z,966.44
2017-12-03T08:40:40.108Z,966.48
2017-12-03T08:41:40.021Z,966.51
2017-12-03T08:42:39.954Z,966.55
2017-12-03T08:43:39.884Z,966.54
2017-12-03T08:44:39.831Z,966.62
2017-12-03T08:45:39.761Z,966.58
2017-12-03T08:46:39.708Z,966.61
2017-12-03T08:47:39.641Z,966.62
2017-12-03T08:48:39.573Z,966.59
2017-12-03T08:49:39.504Z,966.61
2017-12-03T08:50:39.449Z,966.64
2017-12-03T08:51:39.369Z,966.65
2017-12-03T08:52:39.340Z,966.66
2017-12-03T08:53:39.252Z,966.67
2017-12-03T08:54:39.181Z,966.67
2017-12-03T08:55:39.121Z,966.71
2017-12-03T08:56:39.055Z,966.67
2017-12-03T08:57:38.992Z,966.64
2017-12-03T08:58:38.930Z,966.69
2017-12-03T08:59:41.383Z,966.67
2017-12-03T09:00:39.324Z,966.69
2017-12-03T09:01:38.740Z,966.71
2017-12-03T09:02:41.396Z,966.69
2017-12-03T09:03:38.615Z,966.71
2017-12-03T09:04:38.545Z,966.69
2017-12-03T09:05:38.484Z,966.73
2017-12-03T09:06:38.423Z,966.70
2017-12-03T09:07:38.353Z,966.71
2017-12-03T09:08:38.294Z,966.73
2017-12-03T09:09:38.232Z,966.73
2017-12-03T09:10:38.167Z,966.70
2017-12-03T09:11:38.103Z,966.74
2017-12-03T09:12:38.032Z,966.73
2017-12-03T09:13:37.970Z,966.76
2017-12-03T09:14:37.907Z,966.75
2017-12-03T09:15:37.842Z,966.74
2017-12-03T09:16:37.783Z,966.72
2017-12-03T09:17:37.715Z,966.74
2017-12-03T09:18:37.656Z,966.71
2017-12-03T09:19:37.593Z,966.70
2017-12-03T09:20:37.522Z,966.77
2017-12-03T09:21:37.460Z,966.70
2017-12-03T09:22:37.398Z,966.73
2017-12-03T09:23:37.329Z,966.68
2017-12-03T09:24:37.268Z,966.72
2017-12-03T09:25:37.204Z,966.74
2017-12-03T09:26:37.145Z,966.77
2017-12-03T09:27:37.083Z,966.80
2017-12-03T09:28:37.028Z,966.85
2017-12-03T09:29:36.949Z,966.85
2017-12-03T09:30:36.892Z,966.87
2017-12-03T09:31:36.821Z,966.92
2017-12-03T09:32:36.757Z,966.89
2017-12-03T09:33:36.694Z,966.89
2017-12-03T09:34:36.637Z,966.93
2017-12-03T09:35:36.574Z,966.93
2017-12-03T09:36:36.510Z,966.92
2017-12-03T09:37:36.446Z,966.92
2017-12-03T09:38:36.376Z,967.01
2017-12-03T09:39:36.338Z,966.98
2017-12-03T09:40:36.273Z,967.03
2017-12-03T09:41:36.184Z,967.04
2017-12-03T09:42:36.127Z,967.05
2017-12-03T09:43:36.064Z,967.05
2017-12-03T09:44:36.001Z,967.03
2017-12-03T09:45:35.937Z,967.03
2017-12-03T09:46:35.874Z,967.03
2017-12-03T09:47:35.810Z,967.06
2017-12-03T09:48:35.752Z,967.06
2017-12-03T09:49:35.681Z,967.04
2017-12-03T09:50:35.618Z,967.04
2017-12-03T09:51:35.550Z,967.07
2017-12-03T09:52:35.485Z,967.06
2017-12-03T09:53:35.431Z,967.04
2017-12-03T09:54:35.363Z,967.00
2017-12-03T09:55:35.300Z,966.96
2017-12-03T09:56:35.232Z,966.93
2017-12-03T09:57:35.170Z,966.95
2017-12-03T09:58:35.110Z,966.93
2017-12-03T09:59:35.044Z,966.92
2017-12-03T10:00:34.972Z,966.91
2017-12-03T10:01:34.926Z,966.91
2017-12-03T10:02:34.854Z,966.91
2017-12-03T10:03:34.787Z,966.95
2017-12-03T10:04:34.741Z,966.96
2017-12-03T10:05:34.656Z,966.92
2017-12-03T10:06:34.593Z,966.95
2017-12-03T10:07:34.530Z,966.94
2017-12-03T10:08:34.466Z,966.94
2017-12-03T10:09:34.412Z,966.95
2017-12-03T10:10:34.344Z,966.98
2017-12-03T10:11:34.291Z,966.98
2017-12-03T10:12:34.217Z,966.93
2017-12-03T10:13:34.156Z,966.98
2017-12-03T10:14:34.091Z,966.99
2017-12-03T10:15:34.023Z,966.95
2017-12-03T10:16:33.966Z,967.01
2017-12-03T10:17:33.894Z,967.01
2017-12-03T10:18:35.401Z,967.03
2017-12-03T10:19:33.772Z,967.00
2017-12-03T10:20:33.710Z,967.02
2017-12-03T10:21:33.640Z,967.00
2017-12-03T10:22:33.577Z,966.99
2017-12-03T10:23:33.521Z,967.03
2017-12-03T10:24:33.451Z,966.98
2017-12-03T10:25:33.394Z,966.94
2017-12-03T10:26:33.323Z,966.93
2017-12-03T10:27:33.259Z,966.90
2017-12-03T10:28:33.197Z,966.83
2017-12-03T10:29:33.134Z,966.83
2017-12-03T10:30:33.071Z,966.83
2017-12-03T10:31:33.006Z,966.82
2017-12-03T10:32:32.942Z,966.83
2017-12-03T10:33:32.879Z,966.82
2017-12-03T10:34:32.822Z,966.85
2017-12-03T10:35:32.753Z,966.88
2017-12-03T10:36:32.695Z,966.88
2017-12-03T10:37:32.626Z,966.89
2017-12-03T10:38:32.570Z,966.88
2017-12-03T10:39:32.505Z,966.89
2017-12-03T10:40:32.442Z,966.85
2017-12-03T10:41:32.380Z,966.89
2017-12-03T10:42:32.309Z,966.86
2017-12-03T10:43:32.246Z,966.84
2017-12-03T10:44:32.181Z,966.91
2017-12-03T10:45:32.121Z,966.96
2017-12-03T10:46:32.056Z,966.92
2017-12-03T10:47:31.992Z,966.93
2017-12-03T10:48:31.938Z,966.92
2017-12-03T10:49:31.866Z,966.88
2017-12-03T10:50:31.812Z,966.84
2017-12-03T10:51:31.745Z,966.82
2017-12-03T10:52:31.683Z,966.82
2017-12-03T10:53:31.615Z,966.78
2017-12-03T10:54:31.549Z,966.79
2017-12-03T10:55:31.489Z,966.76
2017-12-03T10:56:31.424Z,966.72
2017-12-03T10:57:31.369Z,966.73
2017-12-03T10:58:31.300Z,966.72
2017-12-03T10:59:31.243Z,966.73
2017-12-03T11:00:31.173Z,966.72
2017-12-03T11:01:31.112Z,966.69
2017-12-03T11:02:31.047Z,966.62
2017-12-03T11:03:30.991Z,966.65
2017-12-03T11:04:30.930Z,966.64
2017-12-03T11:05:30.866Z,966.64
2017-12-03T11:06:30.799Z,966.62
2017-12-03T11:07:30.738Z,966.63
2017-12-03T11:08:30.671Z,966.63
2017-12-03T11:09:30.605Z,966.60
2017-12-03T11:10:30.549Z,966.61
2017-12-03T11:11:30.485Z,966.58
2017-12-03T11:12:30.420Z,966.59
2017-12-03T11:13:30.359Z,966.62
2017-12-03T11:14:30.292Z,966.62
2017-12-03T11:15:30.229Z,966.61
2017-12-03T11:16:30.164Z,966.63
2017-12-03T11:17:30.100Z,966.62
2017-12-03T11:18:30.039Z,966.62
2017-12-03T11:19:29.975Z,966.61
2017-12-03T11:20:29.912Z,966.65
2017-12-03T11:21:29.849Z,966.70
2017-12-03T11:22:29.786Z,966.70
2017-12-03T11:23:29.722Z,966.69
2017-12-03T11:24:29.668Z,966.68
2017-12-03T11:25:29.600Z,966.70
2017-12-03T11:26:29.534Z,966.65
2017-12-03T11:27:29.471Z,966.71
2017-12-03T11:28:29.408Z,966.71
2017-12-03T11:29:29.346Z,966.72
2017-12-03T11:30:29.281Z,966.70
2017-12-03T11:31:29.224Z,966.71
2017-12-03T11:32:29.162Z,966.73
2017-12-03T11:33:29.093Z,966.74
2017-12-03T11:34:29.036Z,966.76
2017-12-03T11:35:28.973Z,966.76
2017-12-03T11:36:28.904Z,966.82
2017-12-03T11:37:28.849Z,966.81
2017-12-03T11:38:28.781Z,966.79
2017-12-03T11:39:28.721Z,966.83
2017-12-03T11:40:28.658Z,966.83
2017-12-03T11:41:28.589Z,966.77
2017-12-03T11:42:28.525Z,966.82
2017-12-03T11:43:28.468Z,966.76
2017-12-03T11:44:28.406Z,966.79
2017-12-03T11:45:28.336Z,966.74
2017-12-03T11:46:28.279Z,966.74
2017-12-03T11:47:28.209Z,966.75
2017-12-03T11:48:28.147Z,966.67
2017-12-03T11:49:28.090Z,966.67
2017-12-03T11:50:28.021Z,966.66
2017-12-03T11:51:27.960Z,966.64
2017-12-03T11:52:27.896Z,966.66
2017-12-03T11:53:27.839Z,966.67
2017-12-03T11:54:27.769Z,966.68
2017-12-03T11:55:27.712Z,966.62
2017-12-03T11:56:27.644Z,966.61
2017-12-03T11:57:27.585Z,966.52
2017-12-03T11:58:27.518Z,966.53
2017-12-03T11:59:27.460Z,966.53
2017-12-03T12:00:27.397Z,966.51
2017-12-03T12:01:27.338Z,966.49
2017-12-03T12:02:27.274Z,966.55
2017-12-03T12:03:27.212Z,966.56
2017-12-03T12:04:27.151Z,966.52
2017-12-03T12:05:27.076Z,966.51
2017-12-03T12:06:27.026Z,966.57
2017-12-03T12:07:26.959Z,966.54
2017-12-03T12:08:26.901Z,966.56
2017-12-03T12:09:26.834Z,966.55
2017-12-03T12:10:26.771Z,966.55
2017-12-03T12:11:26.716Z,966.58
2017-12-03T12:12:26.658Z,966.57
2017-12-03T12:13:26.590Z,966.60
2017-12-03T12:14:26.522Z,966.56
2017-12-03T12:15:26.473Z,966.56
2017-12-03T12:16:26.397Z,966.55
2017-12-03T12:17:26.335Z,966.52
2017-12-03T12:18:26.284Z,966.60
2017-12-03T12:19:26.211Z,966.51
2017-12-03T12:20:26.149Z,966.49
2017-12-03T12:21:26.100Z,966.51
2017-12-03T12:22:26.030Z,966.58
2017-12-03T12:23:25.964Z,966.58
2017-12-03T12:24:25.900Z,966.58
2017-12-03T12:25:25.837Z,966.61
2017-12-03T12:26:25.786Z,966.62
2017-12-03T12:27:25.714Z,966.61
2017-12-03T12:28:25.657Z,966.57